Terminal Aerodrome Forecast
Issued by NWS

Home | Current Version | Previous Version | Text Only | Print | Product List | Glossary On
Versions: 1 2 3 4 5 6 7 8 9 10 11 12
000
FTAK31 PAJN 231720
TAFAKT
TAF
PAKT 231720Z 2318/2418 31006KT P6SM VCSH SCT025 BKN040
      TEMPO 2318/2320 BKN025 OVC035
     FM232100 32010KT P6SM BKN040
     FM240300 32005KT P6SM SCT080
      AMD LTD TO CLD VIS AND WIND 2406/2415=

USA.gov is the U.S. government's official web portal to all federal, state and local government web resources and services.